Time;durP1;ratioP1;P1;durP2;ratioP2;P2;SDS_P1;SDS_P2;PMS_P1;PMS_P2;Temp;Humidity;BMP_temperature;BMP_pressure;BME280_temperature;BME280_humidity;BME280_pressure;Samples;Min_cycle;Max_cycle;Signal;HPM_P1;HPM_P2
2022/04/08 00:00:33;;;;;;;2.63;0.90;;;18.30;41.40;;;;;;5014910;28;20030;-80
2022/04/08 00:03:00;;;;;;;2.80;0.88;;;18.30;41.40;;;;;;5014317;28;20022;-81
2022/04/08 00:05:26;;;;;;;2.63;1.00;;;18.30;41.50;;;;;;5013664;28;20030;-84
2022/04/08 00:07:52;;;;;;;3.20;0.85;;;18.20;41.40;;;;;;5014808;28;20086;-83
2022/04/08 00:10:19;;;;;;;2.97;1.10;;;18.20;41.50;;;;;;5015507;28;20014;-82
2022/04/08 00:12:44;;;;;;;3.00;0.77;;;18.20;41.50;;;;;;5016002;28;20080;-83
2022/04/08 00:15:12;;;;;;;2.38;0.85;;;18.20;41.50;;;;;;5016073;28;20018;-83
2022/04/08 00:17:39;;;;;;;3.38;0.93;;;18.20;41.50;;;;;;5015306;28;20022;-83
2022/04/08 00:20:06;;;;;;;4.95;1.02;;;18.20;41.50;;;;;;5016589;28;20090;-81
2022/04/08 00:22:38;;;;;;;2.75;0.85;;;18.20;41.50;;;;;;5018864;28;20585;-83
2022/04/08 00:25:05;;;;;;;1.67;0.63;;;18.20;41.50;;;;;;5002226;28;20113;-84
2022/04/08 00:27:31;;;;;;;2.53;0.90;;;18.20;41.60;;;;;;5017891;28;20029;-85
2022/04/08 00:30:00;;;;;;;2.85;0.93;;;18.20;41.70;;;;;;5017141;28;20026;-83
2022/04/08 00:32:27;;;;;;;2.42;0.90;;;18.20;41.70;;;;;;5016261;28;20036;-83
2022/04/08 00:34:53;;;;;;;2.50;0.80;;;18.20;41.70;;;;;;5015622;28;20010;-84
2022/04/08 00:37:19;;;;;;;2.33;0.80;;;18.10;41.80;;;;;;5016348;28;20014;-85
2022/04/08 00:39:45;;;;;;;2.55;0.90;;;18.10;41.80;;;;;;5016124;28;20077;-84
2022/04/08 00:42:15;;;;;;;3.00;0.98;;;18.10;41.80;;;;;;5015572;28;20093;-83
2022/04/08 00:44:40;;;;;;;2.42;0.85;;;18.10;41.90;;;;;;5015179;28;20113;-83
2022/04/08 00:47:06;;;;;;;1.60;0.70;;;18.10;41.80;;;;;;5015379;28;20034;-84
2022/04/08 00:49:33;;;;;;;1.95;0.77;;;18.10;41.90;;;;;;5016357;28;20088;-84
2022/04/08 00:51:59;;;;;;;2.55;0.70;;;18.10;41.90;;;;;;5016402;28;20030;-84
2022/04/08 00:54:25;;;;;;;2.50;0.73;;;18.10;42.00;;;;;;5016337;28;20152;-85
2022/04/08 00:56:54;;;;;;;2.08;0.88;;;18.10;42.00;;;;;;5016456;28;20014;-86
2022/04/08 00:59:21;;;;;;;2.78;0.90;;;18.10;42.00;;;;;;5017958;28;20013;-84
2022/04/08 01:01:47;;;;;;;2.05;0.80;;;18.10;42.00;;;;;;5017517;28;20040;-84
2022/04/08 01:04:15;;;;;;;2.60;0.90;;;18.10;42.10;;;;;;5017362;28;20556;-82
2022/04/08 01:06:42;;;;;;;2.00;0.80;;;18.10;42.10;;;;;;5018153;28;20068;-84
2022/04/08 01:09:08;;;;;;;2.47;0.90;;;18.10;42.00;;;;;;5018925;28;20014;-84
2022/04/08 01:11:35;;;;;;;2.30;0.82;;;18.10;42.00;;;;;;5017774;28;20469;-83
2022/04/08 01:14:11;;;;;;;2.08;0.70;;;18.10;42.10;;;;;;5001132;28;20011;-83
2022/04/08 01:16:37;;;;;;;2.65;0.80;;;18.10;42.10;;;;;;5001173;28;20086;-83
2022/04/08 01:19:03;;;;;;;4.55;1.17;;;18.10;42.10;;;;;;5016831;28;20034;-84
2022/04/08 01:21:31;;;;;;;2.65;0.90;;;18.00;42.10;;;;;;5017691;28;20030;-83
2022/04/08 01:23:57;;;;;;;3.33;1.00;;;18.00;42.10;;;;;;5000129;28;20018;-83
2022/04/08 01:26:23;;;;;;;2.47;0.80;;;18.00;42.20;;;;;;5016976;28;20017;-83
2022/04/08 01:28:48;;;;;;;2.28;0.82;;;18.00;42.30;;;;;;5017012;28;20563;-85
2022/04/08 01:31:15;;;;;;;4.40;1.30;;;18.00;42.30;;;;;;5016117;28;20378;-85
2022/04/08 01:33:42;;;;;;;2.47;0.80;;;18.00;42.20;;;;;;5016752;28;20109;-85
2022/04/08 01:36:09;;;;;;;3.55;1.05;;;18.00;42.30;;;;;;5018944;28;20097;-82
2022/04/08 01:38:35;;;;;;;2.72;0.82;;;18.00;42.30;;;;;;5018670;28;20037;-82
2022/04/08 01:41:00;;;;;;;2.50;0.85;;;18.00;42.20;;;;;;5017887;28;20022;-83
2022/04/08 01:43:26;;;;;;;2.40;0.70;;;18.00;42.30;;;;;;5018344;28;20029;-80
2022/04/08 01:45:53;;;;;;;2.47;0.80;;;18.00;42.30;;;;;;5018262;28;20026;-80
2022/04/08 01:48:19;;;;;;;1.48;0.60;;;18.00;42.40;;;;;;5018553;28;20025;-82
2022/04/08 01:50:44;;;;;;;3.40;0.90;;;17.90;42.30;;;;;;5018200;28;20022;-81
2022/04/08 01:53:10;;;;;;;2.85;0.80;;;18.00;42.30;;;;;;5016717;28;20116;-82
2022/04/08 01:55:36;;;;;;;2.88;0.90;;;18.00;42.40;;;;;;5016370;28;20096;-84
2022/04/08 01:58:03;;;;;;;2.05;0.85;;;18.00;42.40;;;;;;5017012;28;20032;-83
2022/04/08 02:00:30;;;;;;;2.08;0.80;;;18.00;42.40;;;;;;5032268;28;20032;-84
2022/04/08 02:02:57;;;;;;;2.45;0.90;;;18.00;42.50;;;;;;4999534;28;20152;-82
2022/04/08 02:05:23;;;;;;;2.08;0.80;;;18.00;42.40;;;;;;5018174;28;20014;-84
2022/04/08 02:07:50;;;;;;;1.65;0.75;;;17.90;42.40;;;;;;5020686;28;20018;-81
2022/04/08 02:10:17;;;;;;;2.22;0.80;;;17.90;42.50;;;;;;5019806;28;20076;-81
2022/04/08 02:12:44;;;;;;;2.40;0.93;;;17.90;42.40;;;;;;5019430;28;20022;-80
2022/04/08 02:15:11;;;;;;;2.30;0.80;;;17.90;42.40;;;;;;5020140;28;20469;-79
2022/04/08 02:17:38;;;;;;;2.70;0.93;;;17.90;42.40;;;;;;5018621;28;20006;-82
2022/04/08 02:20:08;;;;;;;2.35;0.70;;;17.90;42.40;;;;;;5001681;28;20378;-82
2022/04/08 02:22:35;;;;;;;1.60;0.60;;;17.90;42.50;;;;;;5021991;28;20493;-81
2022/04/08 02:25:05;;;;;;;2.50;1.08;;;17.90;42.40;;;;;;5022110;28;20089;-82
2022/04/08 02:27:32;;;;;;;2.78;0.95;;;17.90;42.40;;;;;;5021970;28;20481;-80
2022/04/08 02:30:00;;;;;;;2.60;1.00;;;17.90;42.50;;;;;;5021775;28;20105;-81
2022/04/08 02:32:26;;;;;;;2.35;0.82;;;17.90;42.60;;;;;;5022122;28;20034;-79
2022/04/08 02:34:52;;;;;;;2.35;0.82;;;17.90;42.50;;;;;;5022687;28;20499;-80
2022/04/08 02:37:18;;;;;;;2.63;0.93;;;17.90;42.50;;;;;;5021978;28;20026;-79
2022/04/08 02:39:44;;;;;;;2.50;0.98;;;17.90;42.50;;;;;;5019731;28;20037;-79
2022/04/08 02:42:10;;;;;;;2.50;0.80;;;17.80;42.50;;;;;;5019845;28;20018;-80
2022/04/08 02:44:37;;;;;;;2.58;0.75;;;17.90;42.50;;;;;;5020018;28;20033;-78
2022/04/08 02:47:03;;;;;;;2.25;0.70;;;17.90;42.50;;;;;;5018152;28;20121;-79
2022/04/08 02:49:29;;;;;;;1.70;0.80;;;17.90;42.50;;;;;;5017734;28;20090;-79
2022/04/08 02:51:55;;;;;;;2.08;0.60;;;17.90;42.50;;;;;;5015186;28;20453;-78
2022/04/08 02:54:22;;;;;;;2.45;0.75;;;17.90;42.60;;;;;;5015065;28;20080;-80
2022/04/08 02:56:48;;;;;;;2.33;0.80;;;17.90;42.60;;;;;;5015973;28;20028;-79
2022/04/08 02:59:13;;;;;;;2.35;0.70;;;17.90;42.60;;;;;;5014943;28;20076;-79
2022/04/08 03:01:39;;;;;;;2.22;0.90;;;17.90;42.60;;;;;;5030780;28;20477;-78
2022/04/08 03:04:06;;;;;;;1.98;0.60;;;17.90;42.60;;;;;;5015180;28;20120;-79
2022/04/08 03:06:33;;;;;;;2.22;0.70;;;17.90;42.60;;;;;;5016689;28;20022;-78
2022/04/08 03:08:59;;;;;;;1.70;0.70;;;17.90;42.60;;;;;;5017818;28;20152;-80
2022/04/08 03:11:24;;;;;;;1.67;0.50;;;17.90;42.70;;;;;;5018388;28;20053;-79
2022/04/08 03:13:50;;;;;;;1.15;0.50;;;17.90;42.80;;;;;;5018813;28;20554;-80
2022/04/08 03:16:18;;;;;;;1.77;0.68;;;17.90;42.80;;;;;;5017817;28;20046;-80
2022/04/08 03:18:46;;;;;;;1.40;0.63;;;17.80;42.70;;;;;;5018640;28;20049;-79
2022/04/08 03:21:12;;;;;;;2.38;0.80;;;17.80;42.80;;;;;;5017457;28;20030;-81
2022/04/08 03:23:39;;;;;;;1.85;0.70;;;17.80;42.80;;;;;;5015836;28;20018;-78
2022/04/08 03:26:05;;;;;;;1.27;0.60;;;17.80;42.90;;;;;;5014154;28;20030;-78
2022/04/08 03:28:31;;;;;;;2.60;0.80;;;17.80;42.90;;;;;;5015227;28;20022;-79
2022/04/08 03:30:58;;;;;;;1.88;0.80;;;17.80;42.80;;;;;;5014741;28;20030;-77
2022/04/08 03:33:27;;;;;;;2.55;0.70;;;17.80;42.80;;;;;;5014895;28;20119;-78
2022/04/08 03:35:53;;;;;;;2.55;0.70;;;17.80;42.80;;;;;;5016830;28;20026;-78
2022/04/08 03:38:19;;;;;;;1.90;0.60;;;17.80;42.90;;;;;;5020441;28;20442;-79
2022/04/08 03:40:44;;;;;;;2.13;0.68;;;17.80;42.80;;;;;;5020660;28;20405;-80
2022/04/08 03:43:11;;;;;;;1.35;0.50;;;17.80;42.80;;;;;;5019219;28;20524;-78
2022/04/08 03:45:37;;;;;;;1.48;0.60;;;17.80;42.80;;;;;;5019218;28;20018;-79
2022/04/08 03:48:04;;;;;;;2.42;0.70;;;17.80;42.90;;;;;;5018023;28;20014;-79
2022/04/08 03:50:30;;;;;;;1.85;0.70;;;17.70;42.90;;;;;;5018542;28;20026;-78
2022/04/08 03:52:56;;;;;;;2.83;0.77;;;17.70;42.90;;;;;;5019416;28;20056;-78
2022/04/08 03:55:22;;;;;;;1.70;0.60;;;17.70;42.90;;;;;;5019264;28;20022;-78
2022/04/08 03:57:47;;;;;;;2.20;0.80;;;17.70;43.00;;;;;;5019940;28;20066;-79
2022/04/08 04:00:16;;;;;;;2.22;0.63;;;17.70;43.00;;;;;;5019956;28;20169;-78
2022/04/08 04:02:43;;;;;;;0.90;0.47;;;17.70;42.90;;;;;;5021477;28;20044;-78
2022/04/08 04:05:10;;;;;;;2.00;0.65;;;17.80;43.00;;;;;;5020925;28;20077;-79
2022/04/08 04:07:36;;;;;;;1.85;0.60;;;17.80;42.80;;;;;;5019736;28;20086;-77
2022/04/08 04:10:02;;;;;;;2.05;0.80;;;17.90;42.40;;;;;;5018435;28;20068;-76
2022/04/08 04:12:29;;;;;;;1.65;0.70;;;18.10;42.20;;;;;;5018085;28;20030;-78
2022/04/08 04:14:55;;;;;;;1.38;0.60;;;18.20;41.90;;;;;;5017922;28;20010;-77
2022/04/08 04:17:24;;;;;;;1.05;0.50;;;18.40;41.30;;;;;;5001383;28;20049;-77
2022/04/08 04:19:50;;;;;;;1.35;0.45;;;18.60;41.00;;;;;;5017605;28;20046;-77
2022/04/08 04:22:16;;;;;;;1.60;0.68;;;18.70;40.60;;;;;;5002399;28;20018;-77
2022/04/08 04:24:43;;;;;;;1.50;0.80;;;18.80;40.40;;;;;;5019256;28;20014;-76
2022/04/08 04:27:09;;;;;;;1.58;0.60;;;18.90;40.20;;;;;;5017178;28;20101;-76
2022/04/08 04:29:35;;;;;;;1.77;0.70;;;19.10;40.00;;;;;;4999983;28;20030;-76
2022/04/08 04:32:03;;;;;;;1.85;1.05;;;19.10;39.70;;;;;;5017051;28;20037;-76
2022/04/08 04:34:29;;;;;;;1.70;0.55;;;19.30;39.50;;;;;;5015266;28;20068;-76
2022/04/08 04:36:56;;;;;;;1.80;0.60;;;19.40;39.30;;;;;;5014132;28;20026;-75
2022/04/08 04:39:22;;;;;;;1.92;0.70;;;19.40;39.10;;;;;;5013010;28;20072;-76
2022/04/08 04:41:49;;;;;;;1.95;0.60;;;19.50;38.90;;;;;;5012808;28;20041;-75
2022/04/08 04:44:15;;;;;;;1.65;0.60;;;19.60;38.80;;;;;;5012219;28;20022;-76
2022/04/08 04:46:43;;;;;;;1.63;0.63;;;19.70;38.70;;;;;;5012448;28;20026;-76
2022/04/08 04:49:10;;;;;;;1.55;0.70;;;19.70;38.50;;;;;;5013815;28;20017;-76
2022/04/08 04:51:36;;;;;;;1.85;0.60;;;19.70;38.40;;;;;;5013556;28;20157;-77
2022/04/08 04:54:03;;;;;;;1.95;0.70;;;19.90;38.20;;;;;;5015492;28;20041;-76
2022/04/08 04:56:29;;;;;;;1.20;0.57;;;19.90;38.10;;;;;;5013282;28;20018;-78
2022/04/08 04:58:55;;;;;;;1.15;0.63;;;20.00;37.90;;;;;;5013390;28;20029;-77
2022/04/08 05:01:22;;;;;;;1.67;0.63;;;20.10;37.70;;;;;;5013186;28;20145;-75
2022/04/08 05:03:48;;;;;;;0.90;0.50;;;20.10;37.60;;;;;;5014293;28;20144;-76
2022/04/08 05:06:14;;;;;;;1.25;0.60;;;20.10;37.60;;;;;;5014057;28;20046;-75
2022/04/08 05:08:41;;;;;;;2.17;0.73;;;20.10;37.60;;;;;;5015699;28;20072;-79
2022/04/08 05:11:07;;;;;;;1.38;0.50;;;20.10;37.60;;;;;;5017834;28;20018;-78
2022/04/08 05:13:33;;;;;;;1.20;0.50;;;20.20;37.50;;;;;;5020815;28;20026;-75
2022/04/08 05:15:59;;;;;;;1.60;0.50;;;20.20;37.50;;;;;;5019497;28;20037;-78
2022/04/08 05:18:25;;;;;;;2.85;0.68;;;20.20;37.50;;;;;;5003552;28;20042;-76
2022/04/08 05:20:52;;;;;;;1.15;0.47;;;20.20;37.40;;;;;;5019201;28;20113;-75
2022/04/08 05:23:18;;;;;;;1.73;0.60;;;20.30;37.40;;;;;;5016875;28;20029;-77
2022/04/08 05:25:45;;;;;;;1.23;0.52;;;20.20;37.30;;;;;;5018051;28;20030;-75
2022/04/08 05:28:12;;;;;;;0.88;0.43;;;20.30;37.30;;;;;;5018224;28;20488;-75
2022/04/08 05:30:38;;;;;;;1.42;0.73;;;20.40;37.30;;;;;;5016992;28;20033;-77
2022/04/08 05:33:06;;;;;;;1.17;0.47;;;20.40;37.10;;;;;;5017609;28;20124;-77
2022/04/08 05:35:32;;;;;;;2.05;0.70;;;20.40;37.20;;;;;;5017627;28;20097;-75
2022/04/08 05:37:58;;;;;;;0.98;0.40;;;20.30;37.20;;;;;;5016414;28;20050;-75
2022/04/08 05:40:25;;;;;;;1.63;0.60;;;20.40;37.10;;;;;;4999997;28;20022;-75
2022/04/08 05:42:51;;;;;;;1.65;0.60;;;20.40;37.00;;;;;;5017915;28;20101;-76
2022/04/08 05:45:18;;;;;;;1.20;0.50;;;20.40;37.10;;;;;;5018070;28;20020;-75
2022/04/08 05:47:47;;;;;;;2.05;0.80;;;20.40;37.00;;;;;;5017753;28;20101;-75
2022/04/08 05:50:14;;;;;;;1.52;0.55;;;20.50;36.90;;;;;;5000538;28;20075;-76
2022/04/08 05:52:40;;;;;;;1.38;0.40;;;20.50;36.80;;;;;;5017590;28;20107;-75
2022/04/08 05:55:07;;;;;;;0.98;0.68;;;20.50;36.80;;;;;;5017862;28;20014;-77
2022/04/08 05:57:36;;;;;;;1.25;0.52;;;20.50;36.90;;;;;;5000789;28;20025;-75
2022/04/08 06:00:03;;;;;;;1.40;0.60;;;20.50;36.80;;;;;;5016991;28;20029;-76
2022/04/08 06:02:29;;;;;;;1.17;0.57;;;20.50;36.80;;;;;;5017400;28;20018;-75
2022/04/08 06:04:55;;;;;;;1.80;0.40;;;20.50;36.80;;;;;;5017895;28;20030;-76
2022/04/08 06:07:25;;;;;;;0.70;0.38;;;20.60;36.80;;;;;;5020924;28;20026;-75
2022/04/08 06:09:53;;;;;;;1.25;0.50;;;20.60;36.70;;;;;;5020038;28;20072;-76
2022/04/08 06:12:20;;;;;;;1.60;0.60;;;20.60;36.60;;;;;;5019211;28;20088;-76
2022/04/08 06:14:47;;;;;;;1.75;0.60;;;20.60;36.70;;;;;;5019873;28;20010;-76
2022/04/08 06:17:12;;;;;;;1.40;0.60;;;20.60;36.60;;;;;;5019844;28;20014;-76
2022/04/08 06:19:38;;;;;;;1.73;0.63;;;20.60;36.50;;;;;;5019963;28;20068;-76
2022/04/08 06:22:05;;;;;;;0.98;0.50;;;20.70;36.40;;;;;;5017955;28;20033;-76
2022/04/08 06:24:31;;;;;;;1.23;0.60;;;20.70;36.40;;;;;;5019554;28;20018;-77
2022/04/08 06:26:57;;;;;;;1.15;0.55;;;20.70;36.40;;;;;;5019203;28;20493;-76
2022/04/08 06:29:23;;;;;;;1.48;0.50;;;20.70;36.50;;;;;;5017716;28;20029;-75
2022/04/08 06:31:49;;;;;;;0.90;0.47;;;20.70;36.50;;;;;;5016518;28;20017;-77
2022/04/08 06:34:15;;;;;;;1.05;0.50;;;20.70;36.60;;;;;;5017358;28;20014;-75
2022/04/08 06:36:42;;;;;;;1.00;0.35;;;20.70;36.60;;;;;;5016867;28;20106;-76
2022/04/08 06:39:07;;;;;;;1.15;0.70;;;20.70;36.70;;;;;;5017734;28;20042;-75
2022/04/08 06:41:33;;;;;;;1.25;0.55;;;20.70;36.70;;;;;;5000650;28;20049;-76
2022/04/08 06:44:00;;;;;;;1.02;0.50;;;20.70;36.60;;;;;;5017074;28;20029;-76
2022/04/08 06:46:25;;;;;;;1.50;0.60;;;20.70;36.50;;;;;;5017569;28;20029;-76
2022/04/08 06:48:52;;;;;;;1.20;0.52;;;20.70;36.60;;;;;;5018941;28;20052;-75
2022/04/08 06:51:18;;;;;;;1.92;0.55;;;20.80;36.70;;;;;;5017656;28;20085;-74
2022/04/08 06:53:44;;;;;;;1.23;0.40;;;20.80;36.60;;;;;;5020594;28;20030;-76
2022/04/08 06:56:10;;;;;;;1.67;0.70;;;20.80;36.60;;;;;;5020337;28;20579;-75
2022/04/08 06:58:39;;;;;;;2.22;0.68;;;20.80;36.70;;;;;;5020190;28;20014;-77
2022/04/08 07:01:06;;;;;;;1.33;0.52;;;20.80;36.70;;;;;;5020763;28;20022;-76
2022/04/08 07:03:31;;;;;;;1.42;0.70;;;20.80;36.60;;;;;;5020274;28;20033;-77
2022/04/08 07:05:58;;;;;;;1.52;0.50;;;20.80;36.70;;;;;;5020464;28;20102;-76
2022/04/08 07:08:24;;;;;;;2.22;0.50;;;20.80;36.70;;;;;;5020702;28;20049;-77
2022/04/08 07:10:50;;;;;;;3.13;0.50;;;20.80;36.80;;;;;;5020191;28;20022;-75
2022/04/08 07:13:16;;;;;;;3.25;0.65;;;20.90;37.40;;;;;;5021432;28;20041;-77
2022/04/08 07:15:43;;;;;;;2.60;0.52;;;20.90;36.80;;;;;;5019564;28;20104;-76
2022/04/08 07:18:09;;;;;;;1.60;0.60;;;20.90;36.80;;;;;;5020994;28;20133;-76
2022/04/08 07:20:35;;;;;;;3.55;0.98;;;20.90;36.90;;;;;;5019374;28;20022;-75
2022/04/08 07:23:03;;;;;;;1.63;0.70;;;20.90;36.90;;;;;;5017819;28;20101;-76
2022/04/08 07:25:29;;;;;;;1.38;0.57;;;20.90;36.90;;;;;;5016510;28;20101;-76
2022/04/08 07:28:01;;;;;;;2.90;0.60;;;20.90;37.00;;;;;;5017360;28;20041;-76
2022/04/08 07:30:27;;;;;;;2.80;0.70;;;20.90;37.00;;;;;;5017214;28;20030;-75
2022/04/08 07:32:59;;;;;;;1.65;0.60;;;20.90;37.00;;;;;;5016851;28;20089;-75
2022/04/08 07:35:30;;;;;;;2.53;1.00;;;20.90;37.10;;;;;;5017471;28;20064;-77
2022/04/08 07:37:56;;;;;;;2.38;0.73;;;20.90;37.10;;;;;;5014460;28;20519;-75
2022/04/08 07:40:22;;;;;;;2.45;0.57;;;20.90;37.00;;;;;;5013930;28;20025;-75
2022/04/08 07:42:48;;;;;;;1.60;0.60;;;20.90;37.10;;;;;;4997579;28;20104;-76
2022/04/08 07:45:14;;;;;;;1.58;0.70;;;20.90;37.10;;;;;;4997858;28;20404;-76
2022/04/08 07:47:40;;;;;;;2.05;0.70;;;20.90;37.20;;;;;;5014481;28;20029;-77
2022/04/08 07:50:09;;;;;;;2.78;0.70;;;20.90;37.10;;;;;;4998234;28;20385;-77
2022/04/08 07:52:34;;;;;;;2.13;0.80;;;20.90;37.20;;;;;;5016567;28;20092;-75
2022/04/08 07:55:00;;;;;;;2.90;0.60;;;20.90;37.20;;;;;;5017381;28;20022;-76
2022/04/08 07:57:26;;;;;;;1.65;0.77;;;20.90;37.20;;;;;;5001157;28;20025;-75
2022/04/08 07:59:52;;;;;;;3.22;0.70;;;20.90;37.30;;;;;;5017246;28;20030;-76
2022/04/08 08:02:19;;;;;;;2.33;0.70;;;20.90;37.30;;;;;;5017920;28;20391;-75
2022/04/08 08:04:45;;;;;;;4.72;0.85;;;20.90;37.20;;;;;;5017870;28;20041;-78
2022/04/08 08:07:11;;;;;;;3.92;0.80;;;21.00;37.20;;;;;;5018030;28;20026;-76
2022/04/08 08:09:37;;;;;;;5.05;0.70;;;21.00;37.20;;;;;;5017853;28;20032;-76
2022/04/08 08:12:03;;;;;;;5.95;0.80;;;21.00;37.20;;;;;;5000587;28;20049;-78
2022/04/08 08:14:30;;;;;;;4.72;0.90;;;21.00;37.20;;;;;;5018673;28;20037;-75
2022/04/08 08:16:56;;;;;;;3.90;0.60;;;21.00;37.10;;;;;;5018167;28;20018;-77
2022/04/08 08:19:22;;;;;;;2.60;0.70;;;21.00;37.10;;;;;;5018495;28;20034;-76
2022/04/08 08:21:50;;;;;;;5.50;1.38;;;21.00;37.20;;;;;;5001165;28;20014;-76
2022/04/08 08:24:16;;;;;;;2.55;0.95;;;21.00;37.30;;;;;;5018244;28;20103;-75
2022/04/08 08:26:43;;;;;;;5.05;0.95;;;21.00;37.30;;;;;;5018389;28;20068;-75
2022/04/08 08:29:09;;;;;;;3.28;0.80;;;21.00;37.20;;;;;;5017358;28;20030;-76
2022/04/08 08:31:35;;;;;;;5.20;1.00;;;21.00;37.20;;;;;;5017811;28;20040;-76
2022/04/08 08:34:01;;;;;;;2.70;0.80;;;21.00;37.20;;;;;;5019515;28;20037;-76
2022/04/08 08:36:30;;;;;;;5.68;0.98;;;21.00;37.10;;;;;;5020201;28;20017;-76
2022/04/08 08:38:57;;;;;;;2.55;0.93;;;21.10;37.20;;;;;;5018796;28;20050;-75
2022/04/08 08:41:24;;;;;;;3.80;0.90;;;21.00;37.30;;;;;;5017588;28;20010;-76
2022/04/08 08:43:52;;;;;;;3.15;0.95;;;21.00;37.20;;;;;;4999549;28;20495;-75
2022/04/08 08:46:18;;;;;;;2.67;1.10;;;21.10;37.10;;;;;;5015399;28;20037;-76
2022/04/08 08:48:45;;;;;;;4.70;0.73;;;21.10;37.10;;;;;;5016268;28;20481;-76
2022/04/08 08:51:11;;;;;;;4.10;0.80;;;21.10;37.10;;;;;;5015717;28;20038;-75
2022/04/08 08:53:37;;;;;;;3.90;0.85;;;21.10;37.10;;;;;;5014638;28;20494;-75
2022/04/08 08:56:06;;;;;;;2.50;0.80;;;21.10;37.20;;;;;;5014333;28;20025;-76
2022/04/08 08:58:34;;;;;;;3.58;0.88;;;21.10;37.20;;;;;;5030600;28;20044;-75
2022/04/08 09:01:00;;;;;;;4.30;1.25;;;21.10;37.20;;;;;;5030606;28;20014;-75
2022/04/08 09:03:34;;;;;;;6.53;1.10;;;21.10;37.10;;;;;;5013637;28;20026;-76
2022/04/08 09:06:07;;;;;;;4.30;1.10;;;21.10;37.20;;;;;;5014598;28;20026;-76
2022/04/08 09:08:37;;;;;;;3.78;1.00;;;21.10;37.20;;;;;;5016375;28;20029;-75
2022/04/08 09:11:04;;;;;;;4.57;1.20;;;21.10;37.10;;;;;;5000083;28;20112;-77
2022/04/08 09:13:30;;;;;;;2.60;1.00;;;21.10;37.10;;;;;;5016807;28;20033;-76
2022/04/08 09:15:59;;;;;;;4.82;1.13;;;21.10;37.20;;;;;;5016938;28;20028;-75
2022/04/08 09:18:34;;;;;;;6.07;1.10;;;21.10;37.20;;;;;;5015498;28;20068;-76
2022/04/08 09:21:02;;;;;;;5.35;1.10;;;21.10;37.10;;;;;;5015970;28;20032;-75
2022/04/08 09:23:29;;;;;;;3.97;1.10;;;21.10;37.00;;;;;;5014474;28;20018;-75
2022/04/08 09:26:02;;;;;;;3.63;1.00;;;21.20;37.00;;;;;;5013890;28;20037;-77
2022/04/08 09:28:33;;;;;;;3.95;1.00;;;21.20;37.00;;;;;;5014673;28;20178;-76
2022/04/08 09:31:00;;;;;;;4.63;1.10;;;21.20;37.00;;;;;;5014524;28;20029;-75
2022/04/08 09:33:28;;;;;;;3.70;1.10;;;21.10;37.00;;;;;;5014059;28;20084;-76
2022/04/08 09:35:54;;;;;;;4.72;1.42;;;21.20;37.00;;;;;;5015753;28;20497;-76
2022/04/08 09:38:25;;;;;;;3.17;1.10;;;21.20;36.90;;;;;;5017339;28;20089;-76
2022/04/08 09:40:58;;;;;;;;;;;21.20;36.90;;;;;;5000965;28;20010;-75
2022/04/08 09:43:33;;;;;;;7.63;1.40;;;21.20;37.00;;;;;;5018713;28;19901;-75
2022/04/08 09:46:19;;;;;;;6.80;1.38;;;21.20;36.90;;;;;;5017024;28;20097;-76
2022/04/08 09:48:45;;;;;;;6.45;1.30;;;21.20;36.90;;;;;;5016637;28;20474;-75
2022/04/08 09:51:21;;;;;;;5.82;1.20;;;21.20;37.10;;;;;;5016110;28;20026;-75
2022/04/08 09:54:00;;;;;;;6.50;1.30;;;21.20;37.00;;;;;;4999658;28;20069;-75
2022/04/08 09:56:27;;;;;;;8.18;1.65;;;21.20;37.10;;;;;;5001854;28;20040;-77
2022/04/08 09:59:14;;;;;;;8.52;1.77;;;21.20;37.10;;;;;;5019459;28;20472;-76
2022/04/08 10:01:43;;;;;;;6.93;1.35;;;21.20;37.00;;;;;;5018873;28;20065;-76
2022/04/08 10:04:09;;;;;;;6.80;1.50;;;21.20;37.00;;;;;;5019228;28;20760;-75
2022/04/08 10:06:36;;;;;;;3.67;1.33;;;21.20;37.10;;;;;;5019947;28;20022;-76
2022/04/08 10:09:10;;;;;;;10.55;1.40;;;21.20;37.10;;;;;;5019116;28;20025;-76
2022/04/08 10:11:50;;;;;;;10.88;1.73;;;21.20;37.10;;;;;;5019400;28;20029;-76
2022/04/08 10:14:24;;;;;;;10.38;1.63;;;21.20;37.00;;;;;;5018931;28;20030;-76
2022/04/08 10:16:52;;;;;;;8.95;1.65;;;21.30;37.10;;;;;;5019758;28;20022;-76
2022/04/08 10:19:22;;;;;;;7.20;1.50;;;21.30;37.10;;;;;;5018339;28;20121;-77
2022/04/08 10:21:54;;;;;;;7.13;1.30;;;21.30;37.10;;;;;;5019072;28;20014;-76
2022/04/08 10:24:27;;;;;;;7.13;1.75;;;21.30;37.10;;;;;;5018739;28;20538;-75
2022/04/08 10:26:58;;;;;;;9.65;1.40;;;21.30;37.10;;;;;;5002017;28;20416;-75
2022/04/08 10:29:24;;;;;;;8.88;1.48;;;21.30;37.10;;;;;;5019082;28;20018;-75
2022/04/08 10:32:02;;;;;;;9.32;2.20;;;21.30;37.10;;;;;;5019010;28;20018;-76
2022/04/08 10:34:29;;;;;;;9.10;1.55;;;21.30;37.10;;;;;;5019043;28;20065;-76
2022/04/08 10:36:54;;;;;;;7.45;1.33;;;21.30;37.00;;;;;;5002938;28;20018;-75
2022/04/08 10:39:22;;;;;;;7.22;2.28;;;21.30;37.00;;;;;;5017896;28;20034;-78
2022/04/08 10:41:52;;;;;;;7.47;1.73;;;21.30;37.00;;;;;;5018904;28;20026;-76
2022/04/08 10:44:39;;;;;;;9.23;1.67;;;21.30;36.90;;;;;;5019285;28;20436;-75
2022/04/08 10:47:21;;;;;;;7.13;1.50;;;21.40;37.00;;;;;;5017474;28;20548;-75
2022/04/08 10:49:54;;;;;;;7.03;1.83;;;21.30;36.90;;;;;;5017618;28;20057;-75
2022/04/08 10:52:27;;;;;;;5.13;1.52;;;21.30;36.90;;;;;;5018225;28;20477;-74
2022/04/08 10:55:04;;;;;;;13.52;1.88;;;21.30;37.00;;;;;;5017433;28;20018;-74
2022/04/08 10:57:37;;;;;;;12.50;1.55;;;21.30;37.00;;;;;;5017475;28;20026;-75
2022/04/08 11:00:11;;;;;;;7.40;1.75;;;21.40;37.00;;;;;;5017215;28;20516;-76
2022/04/08 11:02:38;;;;;;;8.40;1.77;;;21.30;36.90;;;;;;5000697;28;20607;-74
2022/04/08 11:05:16;;;;;;;9.77;2.15;;;21.40;36.90;;;;;;5017720;28;20025;-75
2022/04/08 11:07:42;;;;;;;9.15;1.98;;;21.40;36.90;;;;;;5018069;28;20417;-77
2022/04/08 11:10:15;;;;;;;7.05;1.67;;;21.30;36.90;;;;;;5017503;28;20064;-75
2022/04/08 11:12:50;;;;;;;8.48;1.80;;;21.40;37.00;;;;;;5017150;28;20108;-76
2022/04/08 11:15:21;;;;;;;6.57;1.52;;;21.30;36.90;;;;;;5017761;28;20010;-76
2022/04/08 11:17:47;;;;;;;7.95;1.60;;;21.40;36.80;;;;;;5000898;28;20017;-75
2022/04/08 11:20:14;;;;;;;8.40;1.60;;;21.40;36.80;;;;;;5018757;28;20018;-76
2022/04/08 11:23:08;;;;;;;11.23;1.98;;;21.40;36.80;;;;;;5020855;28;20172;-76
2022/04/08 11:25:34;;;;;;;8.77;1.63;;;21.50;36.80;;;;;;5020861;28;20025;-76
2022/04/08 11:28:10;;;;;;;5.90;1.60;;;21.40;36.70;;;;;;5019233;28;20050;-76
2022/04/08 11:30:38;;;;;;;9.20;1.83;;;21.40;36.70;;;;;;5018266;28;20386;-76
2022/04/08 11:33:15;;;;;;;7.25;1.83;;;21.50;36.70;;;;;;5017966;28;20026;-76
2022/04/08 11:35:41;;;;;;;7.53;1.58;;;21.50;36.60;;;;;;5000629;28;20472;-76
2022/04/08 11:38:17;;;;;;;8.93;1.50;;;21.50;36.50;;;;;;5016366;28;20117;-77
2022/04/08 11:40:43;;;;;;;6.20;1.67;;;21.50;36.50;;;;;;5017140;28;20045;-76
2022/04/08 11:43:12;;;;;;;8.05;2.00;;;21.50;36.50;;;;;;5018051;28;20018;-77
2022/04/08 11:45:39;;;;;;;7.45;1.50;;;21.50;36.50;;;;;;5016967;28;20022;-76
2022/04/08 11:48:11;;;;;;;6.75;2.25;;;21.50;36.50;;;;;;5017614;28;20048;-76
2022/04/08 11:50:40;;;;;;;6.22;1.60;;;21.50;36.50;;;;;;5000426;28;20086;-77
2022/04/08 11:53:13;;;;;;;9.45;1.80;;;21.50;36.50;;;;;;5033162;28;20032;-77
2022/04/08 11:55:39;;;;;;;14.23;1.60;;;21.50;36.50;;;;;;5000704;28;20489;-77
2022/04/08 11:58:05;;;;;;;7.55;1.50;;;21.50;36.50;;;;;;5032562;28;20029;-76
2022/04/08 12:00:31;;;;;;;9.02;1.38;;;21.50;36.40;;;;;;5015967;28;20046;-76
2022/04/08 12:02:58;;;;;;;6.75;1.65;;;21.60;36.40;;;;;;4999726;28;20484;-76
2022/04/08 12:05:29;;;;;;;8.93;2.22;;;21.60;36.40;;;;;;5014918;28;20141;-75
2022/04/08 12:07:55;;;;;;;8.88;1.95;;;21.60;36.40;;;;;;5015435;28;20014;-77
2022/04/08 12:10:25;;;;;;;7.28;1.67;;;21.60;36.40;;;;;;5014347;28;20119;-76
2022/04/08 12:12:57;;;;;;;9.23;1.60;;;21.60;36.40;;;;;;5014349;28;20053;-76
2022/04/08 12:15:23;;;;;;;6.30;1.58;;;21.60;36.30;;;;;;4998502;28;20026;-76
2022/04/08 12:17:49;;;;;;;9.35;1.75;;;21.60;36.30;;;;;;5014090;28;20481;-76
2022/04/08 12:20:16;;;;;;;8.38;1.55;;;21.60;36.30;;;;;;5013097;28;20100;-75
2022/04/08 12:22:45;;;;;;;8.38;1.52;;;21.60;36.30;;;;;;5014212;28;20018;-77
2022/04/08 12:25:12;;;;;;;7.18;1.60;;;21.60;36.30;;;;;;5013926;28;20033;-76
2022/04/08 12:27:38;;;;;;;7.90;1.55;;;21.60;36.40;;;;;;5013784;28;20026;-75
2022/04/08 12:30:08;;;;;;;8.27;1.83;;;21.60;36.30;;;;;;5014360;28;20049;-76
2022/04/08 12:32:39;;;;;;;6.22;1.30;;;21.60;36.20;;;;;;5014115;28;20037;-76
2022/04/08 12:35:08;;;;;;;7.43;1.65;;;21.60;36.20;;;;;;5014000;28;20022;-76
2022/04/08 12:37:35;;;;;;;7.60;1.33;;;21.60;36.20;;;;;;5012709;28;20025;-76
2022/04/08 12:40:04;;;;;;;7.25;1.38;;;21.60;36.10;;;;;;5013062;28;20010;-76
2022/04/08 12:42:33;;;;;;;8.65;1.85;;;21.60;36.10;;;;;;5012704;28;20014;-77
2022/04/08 12:44:59;;;;;;;4.72;1.30;;;21.60;36.10;;;;;;4996331;28;20037;-77
2022/04/08 12:47:24;;;;;;;8.90;1.55;;;21.60;36.10;;;;;;5012827;28;20018;-76
2022/04/08 12:49:51;;;;;;;10.20;1.77;;;21.60;36.10;;;;;;5012341;28;20497;-77